sensor_id;sensor_type;location;lat;lon;timestamp;pressure;altitude;pressure_sealevel;temperature;humidity
65131;BME280;51709;54.912;8.316;2023-03-23T00:02:56;99848.53;;;7.63;93.14
65131;BME280;51709;54.912;8.316;2023-03-23T00:08:17;99858.59;;;7.69;93.03
65131;BME280;51709;54.912;8.316;2023-03-23T00:13:41;99854.34;;;7.69;92.56
65131;BME280;51709;54.912;8.316;2023-03-23T00:19:05;99851.06;;;7.64;92.91
65131;BME280;51709;54.912;8.316;2023-03-23T00:24:25;99846.00;;;7.63;93.16
65131;BME280;51709;54.912;8.316;2023-03-23T00:29:44;99833.34;;;7.58;93.06
65131;BME280;51709;54.912;8.316;2023-03-23T00:35:04;99811.94;;;7.62;92.97
65131;BME280;51709;54.912;8.316;2023-03-23T00:40:26;99808.38;;;7.68;92.67
65131;BME280;51709;54.912;8.316;2023-03-23T00:45:47;99810.13;;;7.67;92.92
65131;BME280;51709;54.912;8.316;2023-03-23T00:51:12;99799.16;;;7.64;92.83
65131;BME280;51709;54.912;8.316;2023-03-23T00:56:32;99796.63;;;7.62;92.80
65131;BME280;51709;54.912;8.316;2023-03-23T01:01:52;99796.03;;;7.52;92.86
65131;BME280;51709;54.912;8.316;2023-03-23T01:07:12;99803.66;;;7.54;92.88
65131;BME280;51709;54.912;8.316;2023-03-23T01:12:32;99796.13;;;7.48;92.84
65131;BME280;51709;54.912;8.316;2023-03-23T01:17:52;99797.00;;;7.47;92.98
65131;BME280;51709;54.912;8.316;2023-03-23T01:23:11;99779.22;;;7.44;93.10
65131;BME280;51709;54.912;8.316;2023-03-23T01:28:31;99786.59;;;7.54;93.16
65131;BME280;51709;54.912;8.316;2023-03-23T01:33:52;99771.13;;;7.61;93.07
65131;BME280;51709;54.912;8.316;2023-03-23T01:39:13;99779.38;;;7.70;92.82
65131;BME280;51709;54.912;8.316;2023-03-23T01:49:57;99757.78;;;7.82;92.62
65131;BME280;51709;54.912;8.316;2023-03-23T01:55:18;99756.91;;;7.83;92.63
65131;BME280;51709;54.912;8.316;2023-03-23T02:00:39;99751.19;;;7.75;92.46
65131;BME280;51709;54.912;8.316;2023-03-23T02:06:02;99746.19;;;7.70;92.69
65131;BME280;51709;54.912;8.316;2023-03-23T02:11:31;99732.75;;;7.64;92.88
65131;BME280;51709;54.912;8.316;2023-03-23T02:17:25;99719.31;;;7.57;92.77
65131;BME280;51709;54.912;8.316;2023-03-23T02:23:26;99719.22;;;7.60;92.71
65131;BME280;51709;54.912;8.316;2023-03-23T02:34:20;99693.47;;;7.68;92.13
65131;BME280;51709;54.912;8.316;2023-03-23T02:39:49;99702.19;;;7.61;92.46
65131;BME280;51709;54.912;8.316;2023-03-23T02:45:13;99669.53;;;7.72;92.18
65131;BME280;51709;54.912;8.316;2023-03-23T02:50:36;99667.81;;;7.72;92.06
65131;BME280;51709;54.912;8.316;2023-03-23T02:55:57;99668.47;;;7.79;91.93
65131;BME280;51709;54.912;8.316;2023-03-23T03:18:12;99634.31;;;7.83;91.59
65131;BME280;51709;54.912;8.316;2023-03-23T03:23:37;99637.81;;;7.79;91.79
65131;BME280;51709;54.912;8.316;2023-03-23T03:29:01;99636.66;;;7.91;91.51
65131;BME280;51709;54.912;8.316;2023-03-23T03:34:21;99633.38;;;7.86;91.67
65131;BME280;51709;54.912;8.316;2023-03-23T03:39:43;99626.31;;;7.94;91.26
65131;BME280;51709;54.912;8.316;2023-03-23T03:45:06;99624.69;;;7.92;91.60
65131;BME280;51709;54.912;8.316;2023-03-23T03:50:27;99620.47;;;7.91;91.44
65131;BME280;51709;54.912;8.316;2023-03-23T03:55:47;99613.53;;;7.94;91.13
65131;BME280;51709;54.912;8.316;2023-03-23T04:01:10;99595.28;;;8.07;91.33
65131;BME280;51709;54.912;8.316;2023-03-23T04:06:32;99602.44;;;7.95;91.55
65131;BME280;51709;54.912;8.316;2023-03-23T04:11:55;99598.09;;;7.99;91.53
65131;BME280;51709;54.912;8.316;2023-03-23T04:17:40;99603.97;;;8.01;91.39
65131;BME280;51709;54.912;8.316;2023-03-23T04:23:01;99611.63;;;8.02;91.45
65131;BME280;51709;54.912;8.316;2023-03-23T04:28:23;99599.81;;;7.98;91.48
65131;BME280;51709;54.912;8.316;2023-03-23T04:34:04;99593.91;;;7.96;91.52
65131;BME280;51709;54.912;8.316;2023-03-23T04:39:30;99587.97;;;7.96;91.56
65131;BME280;51709;54.912;8.316;2023-03-23T04:44:53;99578.84;;;7.87;91.53
65131;BME280;51709;54.912;8.316;2023-03-23T04:50:21;99575.72;;;7.77;91.52
65131;BME280;51709;54.912;8.316;2023-03-23T04:55:44;99557.19;;;7.70;91.59
65131;BME280;51709;54.912;8.316;2023-03-23T05:01:07;99569.16;;;7.70;91.31
65131;BME280;51709;54.912;8.316;2023-03-23T05:06:35;99553.09;;;7.66;91.25
65131;BME280;51709;54.912;8.316;2023-03-23T05:12:05;99549.22;;;7.53;91.39
65131;BME280;51709;54.912;8.316;2023-03-23T05:17:27;99543.91;;;7.59;91.30
65131;BME280;51709;54.912;8.316;2023-03-23T05:22:51;99541.19;;;7.65;91.40
65131;BME280;51709;54.912;8.316;2023-03-23T05:28:20;99531.72;;;7.69;91.15
65131;BME280;51709;54.912;8.316;2023-03-23T05:33:45;99532.28;;;7.79;91.13
65131;BME280;51709;54.912;8.316;2023-03-23T05:39:13;99538.94;;;7.83;91.10
65131;BME280;51709;54.912;8.316;2023-03-23T05:44:57;99528.00;;;7.79;91.33
65131;BME280;51709;54.912;8.316;2023-03-23T05:50:18;99532.22;;;7.80;91.32
65131;BME280;51709;54.912;8.316;2023-03-23T05:55:39;99525.31;;;7.84;90.96
65131;BME280;51709;54.912;8.316;2023-03-23T06:01:10;99515.31;;;7.76;90.82
65131;BME280;51709;54.912;8.316;2023-03-23T06:06:32;99527.56;;;7.66;91.16
65131;BME280;51709;54.912;8.316;2023-03-23T06:12:00;99523.03;;;7.75;90.95
65131;BME280;51709;54.912;8.316;2023-03-23T06:17:40;99518.88;;;7.72;91.35
65131;BME280;51709;54.912;8.316;2023-03-23T06:22:59;99517.09;;;7.74;91.29
65131;BME280;51709;54.912;8.316;2023-03-23T06:28:22;99514.25;;;7.83;91.27
65131;BME280;51709;54.912;8.316;2023-03-23T06:33:42;99517.38;;;7.93;91.36
65131;BME280;51709;54.912;8.316;2023-03-23T06:39:18;99517.22;;;7.98;90.86
65131;BME280;51709;54.912;8.316;2023-03-23T06:44:54;99538.31;;;8.05;90.30
65131;BME280;51709;54.912;8.316;2023-03-23T06:50:18;99544.34;;;8.02;90.43
65131;BME280;51709;54.912;8.316;2023-03-23T06:55:39;99556.94;;;8.08;90.28
65131;BME280;51709;54.912;8.316;2023-03-23T07:00:58;99561.41;;;8.28;89.64
65131;BME280;51709;54.912;8.316;2023-03-23T07:06:32;99564.19;;;8.49;88.99
65131;BME280;51709;54.912;8.316;2023-03-23T07:11:54;99565.53;;;8.59;88.63
65131;BME280;51709;54.912;8.316;2023-03-23T07:17:24;99571.69;;;8.79;88.82
65131;BME280;51709;54.912;8.316;2023-03-23T07:22:57;99574.69;;;8.92;88.18
65131;BME280;51709;54.912;8.316;2023-03-23T07:28:39;99577.28;;;8.90;88.11
65131;BME280;51709;54.912;8.316;2023-03-23T07:34:20;99592.22;;;8.77;88.67
65131;BME280;51709;54.912;8.316;2023-03-23T07:39:56;99599.91;;;8.77;88.74
65131;BME280;51709;54.912;8.316;2023-03-23T07:45:17;99617.06;;;8.74;88.45
65131;BME280;51709;54.912;8.316;2023-03-23T07:50:37;99613.78;;;8.96;88.10
65131;BME280;51709;54.912;8.316;2023-03-23T07:56:00;99622.75;;;9.07;87.99
65131;BME280;51709;54.912;8.316;2023-03-23T08:01:41;99633.44;;;9.19;87.64
65131;BME280;51709;54.912;8.316;2023-03-23T08:07:36;99647.03;;;9.21;87.70
65131;BME280;51709;54.912;8.316;2023-03-23T08:13:19;99644.06;;;9.57;86.82
65131;BME280;51709;54.912;8.316;2023-03-23T08:19:02;99649.97;;;9.59;86.50
65131;BME280;51709;54.912;8.316;2023-03-23T08:24:46;99667.22;;;9.54;86.82
65131;BME280;51709;54.912;8.316;2023-03-23T08:30:20;99660.94;;;9.63;86.30
65131;BME280;51709;54.912;8.316;2023-03-23T08:35:58;99672.75;;;9.67;86.44
65131;BME280;51709;54.912;8.316;2023-03-23T08:41:33;99677.66;;;9.73;86.34
65131;BME280;51709;54.912;8.316;2023-03-23T08:47:05;99682.38;;;9.84;86.58
65131;BME280;51709;54.912;8.316;2023-03-23T08:52:53;99691.50;;;10.15;85.60
65131;BME280;51709;54.912;8.316;2023-03-23T08:58:29;99688.88;;;10.40;85.12
65131;BME280;51709;54.912;8.316;2023-03-23T09:04:03;99685.22;;;10.46;85.08
65131;BME280;51709;54.912;8.316;2023-03-23T09:09:42;99701.66;;;10.62;85.30
65131;BME280;51709;54.912;8.316;2023-03-23T09:15:06;99705.50;;;10.74;85.09
65131;BME280;51709;54.912;8.316;2023-03-23T09:20:28;99718.25;;;10.76;85.21
65131;BME280;51709;54.912;8.316;2023-03-23T09:25:48;99720.88;;;10.74;85.44
65131;BME280;51709;54.912;8.316;2023-03-23T09:31:08;99731.25;;;10.93;85.29
65131;BME280;51709;54.912;8.316;2023-03-23T09:36:27;99740.38;;;11.21;84.52
65131;BME280;51709;54.912;8.316;2023-03-23T09:48:04;99753.38;;;10.96;84.73
65131;BME280;51709;54.912;8.316;2023-03-23T09:53:32;99754.84;;;10.59;84.87
65131;BME280;51709;54.912;8.316;2023-03-23T09:59:01;99749.34;;;10.46;85.21
65131;BME280;51709;54.912;8.316;2023-03-23T10:04:34;99779.09;;;10.50;84.49
65131;BME280;51709;54.912;8.316;2023-03-23T10:09:59;99784.41;;;10.45;84.14
65131;BME280;51709;54.912;8.316;2023-03-23T10:15:27;99787.97;;;10.41;83.63
65131;BME280;51709;54.912;8.316;2023-03-23T10:21:11;99797.44;;;10.63;83.43
65131;BME280;51709;54.912;8.316;2023-03-23T10:26:58;99797.88;;;10.74;82.69
65131;BME280;51709;54.912;8.316;2023-03-23T10:32:39;99804.47;;;11.02;82.88
65131;BME280;51709;54.912;8.316;2023-03-23T10:38:05;99816.00;;;11.57;81.46
65131;BME280;51709;54.912;8.316;2023-03-23T10:43:26;99807.25;;;12.02;80.53
65131;BME280;51709;54.912;8.316;2023-03-23T10:48:47;99838.50;;;13.08;78.98
65131;BME280;51709;54.912;8.316;2023-03-23T10:54:09;99838.75;;;18.77;62.70
65131;BME280;51709;54.912;8.316;2023-03-23T10:59:30;99856.25;;;24.55;48.60
65131;BME280;51709;54.912;8.316;2023-03-23T11:04:59;99861.63;;;29.46;41.25
65131;BME280;51709;54.912;8.316;2023-03-23T11:10:35;99872.84;;;31.18;39.91
65131;BME280;51709;54.912;8.316;2023-03-23T11:15:54;99889.44;;;35.86;34.36
65131;BME280;51709;54.912;8.316;2023-03-23T11:21:14;99883.75;;;37.28;32.92
65131;BME280;51709;54.912;8.316;2023-03-23T11:26:35;99898.72;;;38.76;31.55
65131;BME280;51709;54.912;8.316;2023-03-23T11:37:25;99878.47;;;41.23;29.44
65131;BME280;51709;54.912;8.316;2023-03-23T11:43:07;99902.41;;;42.62;27.17
65131;BME280;51709;54.912;8.316;2023-03-23T11:59:35;99919.69;;;42.66;26.23
65131;BME280;51709;54.912;8.316;2023-03-23T12:05:26;99913.00;;;43.76;22.70
65131;BME280;51709;54.912;8.316;2023-03-23T12:16:38;99925.63;;;47.06;18.96
65131;BME280;51709;54.912;8.316;2023-03-23T12:44:51;99945.00;;;44.58;17.84
65131;BME280;51709;54.912;8.316;2023-03-23T12:56:10;99940.88;;;44.26;16.03
65131;BME280;51709;54.912;8.316;2023-03-23T13:01:42;99947.06;;;41.10;17.51
65131;BME280;51709;54.912;8.316;2023-03-23T13:07:07;99944.66;;;41.13;16.20
65131;BME280;51709;54.912;8.316;2023-03-23T13:12:29;99946.81;;;39.11;17.57
65131;BME280;51709;54.912;8.316;2023-03-23T13:23:23;99972.63;;;40.80;15.46
65131;BME280;51709;54.912;8.316;2023-03-23T13:28:48;99967.38;;;40.41;16.17
65131;BME280;51709;54.912;8.316;2023-03-23T13:34:20;99975.59;;;38.70;16.19
65131;BME280;51709;54.912;8.316;2023-03-23T13:40:13;99964.88;;;39.33;15.79
65131;BME280;51709;54.912;8.316;2023-03-23T13:45:44;99958.22;;;37.20;17.53
65131;BME280;51709;54.912;8.316;2023-03-23T13:51:25;99953.09;;;36.88;17.89
65131;BME280;51709;54.912;8.316;2023-03-23T13:56:52;99954.94;;;40.12;15.73
65131;BME280;51709;54.912;8.316;2023-03-23T14:02:36;99951.59;;;33.07;21.35
65131;BME280;51709;54.912;8.316;2023-03-23T14:07:58;99950.16;;;29.50;25.01
65131;BME280;51709;54.912;8.316;2023-03-23T14:13:28;99943.31;;;32.62;21.25
65131;BME280;51709;54.912;8.316;2023-03-23T14:18:53;99950.97;;;34.06;19.48
65131;BME280;51709;54.912;8.316;2023-03-23T14:24:38;99938.66;;;37.07;16.73
65131;BME280;51709;54.912;8.316;2023-03-23T14:29:59;99949.72;;;36.80;17.60
65131;BME280;51709;54.912;8.316;2023-03-23T14:35:27;99940.06;;;35.30;18.97
65131;BME280;51709;54.912;8.316;2023-03-23T14:40:48;99944.84;;;36.47;17.89
65131;BME280;51709;54.912;8.316;2023-03-23T14:46:10;99946.97;;;36.87;17.73
65131;BME280;51709;54.912;8.316;2023-03-23T14:51:30;99948.63;;;34.75;19.56
65131;BME280;51709;54.912;8.316;2023-03-23T14:56:50;99930.28;;;37.15;17.43
65131;BME280;51709;54.912;8.316;2023-03-23T15:02:20;99939.03;;;36.01;18.13
65131;BME280;51709;54.912;8.316;2023-03-23T15:07:45;99946.47;;;34.00;19.43
65131;BME280;51709;54.912;8.316;2023-03-23T15:13:11;99951.06;;;35.15;18.52
65131;BME280;51709;54.912;8.316;2023-03-23T15:18:35;99946.50;;;32.43;20.69
65131;BME280;51709;54.912;8.316;2023-03-23T15:23:56;99942.97;;;28.02;25.32
65131;BME280;51709;54.912;8.316;2023-03-23T15:29:17;99941.91;;;26.09;27.42
65131;BME280;51709;54.912;8.316;2023-03-23T15:34:37;99946.81;;;24.87;28.30
65131;BME280;51709;54.912;8.316;2023-03-23T15:39:59;99942.03;;;21.75;32.27
65131;BME280;51709;54.912;8.316;2023-03-23T15:45:27;99937.50;;;17.33;40.14
65131;BME280;51709;54.912;8.316;2023-03-23T15:50:47;99933.13;;;15.28;44.38
65131;BME280;51709;54.912;8.316;2023-03-23T15:56:10;99944.13;;;13.99;47.05
65131;BME280;51709;54.912;8.316;2023-03-23T16:01:30;99938.75;;;13.13;49.02
65131;BME280;51709;54.912;8.316;2023-03-23T16:06:52;99932.91;;;12.90;49.21
65131;BME280;51709;54.912;8.316;2023-03-23T16:12:14;99926.16;;;12.28;51.21
65131;BME280;51709;54.912;8.316;2023-03-23T16:17:35;99922.72;;;11.86;52.24
65131;BME280;51709;54.912;8.316;2023-03-23T16:22:55;99924.63;;;11.61;52.93
65131;BME280;51709;54.912;8.316;2023-03-23T16:28:17;99900.31;;;11.47;53.51
65131;BME280;51709;54.912;8.316;2023-03-23T16:33:40;99893.50;;;11.02;55.41
65131;BME280;51709;54.912;8.316;2023-03-23T16:39:01;99911.38;;;11.05;55.20
65131;BME280;51709;54.912;8.316;2023-03-23T16:44:22;99903.09;;;10.74;56.10
65131;BME280;51709;54.912;8.316;2023-03-23T16:49:43;99911.16;;;10.40;57.26
65131;BME280;51709;54.912;8.316;2023-03-23T16:55:05;99905.59;;;10.27;57.19
65131;BME280;51709;54.912;8.316;2023-03-23T17:00:26;99912.00;;;9.88;58.32
65131;BME280;51709;54.912;8.316;2023-03-23T17:05:48;99918.28;;;9.52;59.69
65131;BME280;51709;54.912;8.316;2023-03-23T17:11:11;99924.31;;;9.23;60.68
65131;BME280;51709;54.912;8.316;2023-03-23T17:16:31;99921.66;;;8.98;61.99
65131;BME280;51709;54.912;8.316;2023-03-23T17:21:52;99919.59;;;8.79;62.74
65131;BME280;51709;54.912;8.316;2023-03-23T17:27:17;99921.09;;;8.56;63.73
65131;BME280;51709;54.912;8.316;2023-03-23T17:32:38;99931.69;;;8.42;63.87
65131;BME280;51709;54.912;8.316;2023-03-23T17:38:00;99922.66;;;8.29;64.75
65131;BME280;51709;54.912;8.316;2023-03-23T17:43:21;99931.50;;;8.15;64.89
65131;BME280;51709;54.912;8.316;2023-03-23T17:48:41;99941.16;;;8.04;65.61
65131;BME280;51709;54.912;8.316;2023-03-23T17:54:02;99937.94;;;7.97;65.61
65131;BME280;51709;54.912;8.316;2023-03-23T17:59:24;99934.00;;;7.84;66.59
65131;BME280;51709;54.912;8.316;2023-03-23T18:04:45;99941.94;;;7.71;67.54
65131;BME280;51709;54.912;8.316;2023-03-23T18:10:06;99955.75;;;7.64;67.95
65131;BME280;51709;54.912;8.316;2023-03-23T18:15:34;99950.72;;;7.61;67.91
65131;BME280;51709;54.912;8.316;2023-03-23T18:20:59;99943.09;;;7.60;68.19
65131;BME280;51709;54.912;8.316;2023-03-23T18:26:20;99949.06;;;7.59;68.39
65131;BME280;51709;54.912;8.316;2023-03-23T18:31:41;99946.41;;;7.63;68.76
65131;BME280;51709;54.912;8.316;2023-03-23T18:37:03;99947.94;;;7.70;68.23
65131;BME280;51709;54.912;8.316;2023-03-23T18:42:24;99942.09;;;7.65;69.02
65131;BME280;51709;54.912;8.316;2023-03-23T18:47:46;99941.38;;;7.60;69.77
65131;BME280;51709;54.912;8.316;2023-03-23T18:53:06;99945.53;;;7.64;68.74
65131;BME280;51709;54.912;8.316;2023-03-23T18:58:27;99946.44;;;7.62;69.38
65131;BME280;51709;54.912;8.316;2023-03-23T19:03:48;99957.47;;;7.64;69.54
65131;BME280;51709;54.912;8.316;2023-03-23T19:09:08;99945.59;;;7.63;70.47
65131;BME280;51709;54.912;8.316;2023-03-23T19:14:29;99940.38;;;7.66;70.34
65131;BME280;51709;54.912;8.316;2023-03-23T19:19:50;99915.47;;;7.76;70.65
65131;BME280;51709;54.912;8.316;2023-03-23T19:25:12;99906.69;;;7.86;71.33
65131;BME280;51709;54.912;8.316;2023-03-23T19:30:34;99905.59;;;7.96;71.52
65131;BME280;51709;54.912;8.316;2023-03-23T19:35:55;99901.16;;;8.03;71.12
65131;BME280;51709;54.912;8.316;2023-03-23T19:41:30;99895.94;;;8.08;71.17
65131;BME280;51709;54.912;8.316;2023-03-23T19:46:52;99888.13;;;8.12;71.86
65131;BME280;51709;54.912;8.316;2023-03-23T19:52:13;99897.16;;;8.26;71.86
65131;BME280;51709;54.912;8.316;2023-03-23T19:57:38;99885.94;;;8.31;71.65
65131;BME280;51709;54.912;8.316;2023-03-23T20:02:59;99905.31;;;8.40;72.04
65131;BME280;51709;54.912;8.316;2023-03-23T20:08:20;99909.09;;;8.58;71.39
65131;BME280;51709;54.912;8.316;2023-03-23T20:13:42;99901.88;;;8.73;71.17
65131;BME280;51709;54.912;8.316;2023-03-23T20:19:03;99901.69;;;8.81;70.88
65131;BME280;51709;54.912;8.316;2023-03-23T20:24:26;99902.34;;;8.87;71.25
65131;BME280;51709;54.912;8.316;2023-03-23T20:29:47;99873.91;;;8.97;71.10
65131;BME280;51709;54.912;8.316;2023-03-23T20:35:09;99865.16;;;9.04;71.05
65131;BME280;51709;54.912;8.316;2023-03-23T20:40:33;99857.47;;;9.04;71.20
65131;BME280;51709;54.912;8.316;2023-03-23T20:45:55;99854.03;;;9.05;71.42
65131;BME280;51709;54.912;8.316;2023-03-23T20:51:17;99864.97;;;9.10;71.26
65131;BME280;51709;54.912;8.316;2023-03-23T20:56:38;99849.56;;;9.12;71.59
65131;BME280;51709;54.912;8.316;2023-03-23T21:02:00;99863.84;;;9.19;71.80
65131;BME280;51709;54.912;8.316;2023-03-23T21:07:20;99851.75;;;9.24;72.07
65131;BME280;51709;54.912;8.316;2023-03-23T21:12:43;99850.63;;;9.33;71.42
65131;BME280;51709;54.912;8.316;2023-03-23T21:18:04;99850.72;;;9.30;71.80
65131;BME280;51709;54.912;8.316;2023-03-23T21:23:27;99840.13;;;9.40;71.45
65131;BME280;51709;54.912;8.316;2023-03-23T21:28:49;99838.47;;;9.39;71.42
65131;BME280;51709;54.912;8.316;2023-03-23T21:34:13;99844.84;;;9.53;71.25
65131;BME280;51709;54.912;8.316;2023-03-23T21:39:34;99847.31;;;9.56;71.54
65131;BME280;51709;54.912;8.316;2023-03-23T21:45:04;99827.75;;;9.53;71.78
65131;BME280;51709;54.912;8.316;2023-03-23T21:50:26;99822.47;;;9.58;71.43
65131;BME280;51709;54.912;8.316;2023-03-23T21:55:48;99807.19;;;9.56;71.39
65131;BME280;51709;54.912;8.316;2023-03-23T22:01:12;99804.16;;;9.44;72.02
65131;BME280;51709;54.912;8.316;2023-03-23T22:06:36;99810.66;;;9.54;71.54
65131;BME280;51709;54.912;8.316;2023-03-23T22:12:00;99790.84;;;9.59;71.24
65131;BME280;51709;54.912;8.316;2023-03-23T22:17:21;99774.94;;;9.49;71.21
65131;BME280;51709;54.912;8.316;2023-03-23T22:22:42;99762.72;;;9.32;72.24
65131;BME280;51709;54.912;8.316;2023-03-23T22:28:05;99755.81;;;9.34;72.13
65131;BME280;51709;54.912;8.316;2023-03-23T22:33:31;99755.97;;;9.30;72.48
65131;BME280;51709;54.912;8.316;2023-03-23T22:38:56;99753.34;;;9.31;72.66
65131;BME280;51709;54.912;8.316;2023-03-23T22:44:17;99745.00;;;9.26;72.81
65131;BME280;51709;54.912;8.316;2023-03-23T22:49:38;99722.28;;;9.17;73.11
65131;BME280;51709;54.912;8.316;2023-03-23T22:54:59;99723.41;;;9.08;73.64
65131;BME280;51709;54.912;8.316;2023-03-23T23:00:20;99732.13;;;9.02;74.39
65131;BME280;51709;54.912;8.316;2023-03-23T23:05:44;99703.13;;;9.02;74.63
65131;BME280;51709;54.912;8.316;2023-03-23T23:11:06;99690.81;;;9.13;74.20
65131;BME280;51709;54.912;8.316;2023-03-23T23:16:30;99675.50;;;9.12;74.58
65131;BME280;51709;54.912;8.316;2023-03-23T23:21:52;99674.53;;;9.16;74.78
65131;BME280;51709;54.912;8.316;2023-03-23T23:27:14;99663.81;;;9.30;74.13
65131;BME280;51709;54.912;8.316;2023-03-23T23:32:35;99666.50;;;9.50;74.76
65131;BME280;51709;54.912;8.316;2023-03-23T23:37:56;99643.69;;;9.68;75.25
65131;BME280;51709;54.912;8.316;2023-03-23T23:43:17;99634.94;;;9.74;75.55
65131;BME280;51709;54.912;8.316;2023-03-23T23:48:37;99638.59;;;9.66;76.59
65131;BME280;51709;54.912;8.316;2023-03-23T23:53:58;99632.69;;;9.64;77.35
65131;BME280;51709;54.912;8.316;2023-03-23T23:59:21;99629.22;;;9.67;77.59
